Time;durP1;ratioP1;P1;durP2;ratioP2;P2;SDS_P1;SDS_P2;PMS_P1;PMS_P2;Temp;Humidity;BMP_temperature;BMP_pressure;BME280_temperature;BME280_humidity;BME280_pressure;Samples;Min_cycle;Max_cycle;Signal;HPM_P1;HPM_P2
2022/07/17 00:00:14;;;;;;;5.70;2.03;;;;;;;22.03;100.00;101678.16;2073135;28;20429;-68
2022/07/17 00:01:15;;;;;;;4.00;2.50;;;;;;;21.45;100.00;101607.53;2073072;28;20248;-68
2022/07/17 00:02:16;;;;;;;4.87;2.60;;;;;;;21.76;100.00;101655.88;2079526;28;20207;-68
2022/07/17 00:03:17;;;;;;;5.17;2.30;;;;;;;21.98;100.00;101673.19;2075153;28;20269;-68
2022/07/17 00:04:18;;;;;;;4.10;2.10;;;;;;;21.97;100.00;101685.75;2077619;28;20200;-68
2022/07/17 00:05:18;;;;;;;2.63;2.20;;;;;;;21.96;100.00;101674.94;2077456;28;20440;-68
2022/07/17 00:06:19;;;;;;;5.80;2.50;;;;;;;21.85;100.00;101669.88;2076388;28;20270;-68
2022/07/17 00:07:20;;;;;;;3.57;2.20;;;;;;;21.68;100.00;101659.50;2081128;28;20175;-68
2022/07/17 00:08:20;;;;;;;3.10;2.20;;;;;;;21.85;100.00;101669.88;2081752;28;20175;-68
2022/07/17 00:09:21;;;;;;;3.60;2.50;;;;;;;21.86;100.00;101674.25;2082083;28;20176;-68
2022/07/17 00:10:21;;;;;;;4.13;2.43;;;;;;;21.88;100.00;101673.75;2074140;28;20185;-68
2022/07/17 00:11:22;;;;;;;4.47;2.40;;;;;;;21.85;100.00;101674.75;2079972;28;20221;-68
2022/07/17 00:12:22;;;;;;;3.93;2.27;;;;;;;21.11;100.00;101570.72;2076026;28;20668;-68
2022/07/17 00:13:24;;;;;;;3.83;2.67;;;;;;;21.83;100.00;101680.09;2077562;28;20192;-68
2022/07/17 00:14:24;;;;;;;4.37;2.30;;;;;;;21.83;100.00;101680.09;2073091;28;20251;-68
2022/07/17 00:15:25;;;;;;;4.83;2.43;;;;;;;21.82;100.00;101679.31;2075037;28;20447;-68
2022/07/17 00:16:25;;;;;;;4.87;2.47;;;;;;;21.81;100.00;101682.63;2080732;28;20173;-68
2022/07/17 00:17:26;;;;;;;6.43;2.50;;;;;;;21.63;100.00;101660.16;2073275;28;20177;-68
2022/07/17 00:18:26;;;;;;;5.27;2.33;;;;;;;21.71;100.00;101684.75;2080793;28;20256;-68
2022/07/17 00:19:27;;;;;;;5.20;2.37;;;;;;;21.65;100.00;101685.88;2074065;28;20284;-68
2022/07/17 00:20:29;;;;;;;4.40;2.20;;;;;;;21.66;100.00;101687.44;2081132;28;20173;-68
2022/07/17 00:21:29;;;;;;;5.77;2.40;;;;;;;20.78;100.00;101564.38;2073348;28;20218;-68
2022/07/17 00:22:30;;;;;;;15.07;4.33;;;;;;;21.54;100.00;101680.03;2073190;28;20438;-69
2022/07/17 00:23:30;;;;;;;17.43;4.30;;;;;;;21.52;100.00;101686.13;2073491;28;20566;-69
2022/07/17 00:24:31;;;;;;;12.23;3.63;;;;;;;21.43;100.00;101694.66;2073138;28;20659;-69
2022/07/17 00:25:34;;;;;;;14.20;3.40;;;;;;;21.45;100.00;101686.47;2073981;28;20183;-69
2022/07/17 00:26:35;;;;;;;8.97;3.20;;;;;;;21.42;100.00;101681.03;2081830;28;20232;-69
2022/07/17 00:27:36;;;;;;;10.17;3.17;;;;;;;21.29;100.00;101674.88;2073538;28;20451;-69
2022/07/17 00:28:37;;;;;;;10.57;2.70;;;;;;;20.90;100.00;101608.44;2080467;28;20194;-69
2022/07/17 00:29:37;;;;;;;7.30;2.73;;;;;;;20.83;100.00;101608.78;2076005;28;20451;-69
2022/07/17 00:30:38;;;;;;;7.53;2.90;;;;;;;21.18;100.00;101661.31;2078052;28;20191;-69
2022/07/17 00:31:39;;;;;;;8.23;2.80;;;;;;;21.14;100.00;101686.09;2081416;28;20536;-69
2022/07/17 00:32:40;;;;;;;6.43;2.90;;;;;;;20.85;100.00;101659.78;2078975;28;20222;-69
2022/07/17 00:33:41;;;;;;;7.60;2.70;;;;;;;21.08;100.00;101698.53;2072982;28;20177;-69
2022/07/17 00:34:42;;;;;;;8.03;2.70;;;;;;;21.04;100.00;101692.28;2073483;28;20497;-69
2022/07/17 00:35:42;;;;;;;7.63;2.90;;;;;;;20.20;100.00;101575.31;2075769;28;20482;-68
2022/07/17 00:36:43;;;;;;;6.53;2.63;;;;;;;21.05;100.00;101697.44;2074307;28;20279;-69
2022/07/17 00:37:45;;;;;;;7.77;2.70;;;;;;;21.02;100.00;101698.38;2075785;28;20193;-68
2022/07/17 00:38:46;;;;;;;7.37;2.93;;;;;;;20.95;100.00;101687.47;2081130;28;20199;-68
2022/07/17 00:39:46;;;;;;;5.33;2.50;;;;;;;20.51;100.00;101630.06;2077430;28;20448;-68
2022/07/17 00:40:47;;;;;;;6.60;2.53;;;;;;;20.85;100.00;101680.31;2078787;28;20179;-69
2022/07/17 00:41:47;;;;;;;8.13;2.90;;;;;;;20.29;100.00;101592.97;2081377;28;20556;-68
2022/07/17 00:42:48;;;;;;;3.80;2.30;;;;;;;20.87;100.00;101697.50;2080156;28;20173;-68
2022/07/17 00:43:49;;;;;;;3.83;2.43;;;;;;;20.84;100.00;101692.03;2073144;28;20176;-68
2022/07/17 00:44:49;;;;;;;5.33;2.57;;;;;;;20.81;100.00;101702.22;2073349;28;20267;-68
2022/07/17 00:46:00;;;;;;;3.83;2.37;;;;;;;19.65;100.00;101515.63;2079639;28;20269;-68
2022/07/17 00:47:00;;;;;;;5.40;2.40;;;;;;;20.74;100.00;101701.78;2080847;28;20189;-68
2022/07/17 00:48:05;;;;;;;4.40;2.50;;;;;;;20.68;100.00;101693.19;2075797;28;20454;-68
2022/07/17 00:49:07;;;;;;;3.67;2.60;;;;;;;20.72;100.00;101709.94;2073138;28;20191;-68
2022/07/17 00:50:08;;;;;;;6.50;2.50;;;;;;;20.68;100.00;101706.53;2079462;28;20462;-68
2022/07/17 00:51:09;;;;;;;3.20;2.53;;;;;;;20.65;100.00;101697.00;2081482;28;20446;-68
2022/07/17 00:52:11;;;;;;;3.47;2.57;;;;;;;19.90;100.00;101602.44;2080821;28;20230;-68
2022/07/17 00:53:12;;;;;;;4.37;2.70;;;;;;;20.60;100.00;101708.91;2081350;28;20693;-68
2022/07/17 00:54:13;;;;;;;5.30;2.47;;;;;;;20.55;100.00;101703.13;2080924;28;20460;-68
2022/07/17 00:55:15;;;;;;;5.87;2.40;;;;;;;20.55;100.00;101709.53;2081143;28;20177;-68
2022/07/17 00:56:17;;;;;;;5.97;2.60;;;;;;;20.19;100.00;101647.72;2081433;28;20463;-68
2022/07/17 00:57:19;;;;;;;3.20;2.37;;;;;;;20.58;100.00;101699.38;2074205;28;20938;-69
2022/07/17 00:58:24;;;;;;;4.27;2.60;;;;;;;20.55;100.00;101701.09;2073278;28;20434;-69
2022/07/17 00:59:25;;;;;;;5.13;2.57;;;;;;;20.57;100.00;101712.66;2073318;28;20437;-68
2022/07/17 01:00:25;;;;;;;4.40;2.57;;;;;;;20.61;100.00;101706.84;2077357;28;20886;-69
2022/07/17 01:01:26;;;;;;;6.00;2.80;;;;;;;20.63;100.00;101705.09;2081044;28;20196;-68
2022/07/17 01:02:26;;;;;;;4.53;2.27;;;;;;;20.65;100.00;101704.66;2079044;28;20541;-69
2022/07/17 01:03:26;;;;;;;4.03;2.40;;;;;;;20.56;100.00;101679.31;2073721;28;20182;-69
2022/07/17 01:04:27;;;;;;;5.53;2.60;;;;;;;20.70;100.00;101707.59;2081096;28;20186;-68
2022/07/17 01:05:27;;;;;;;3.53;2.47;;;;;;;20.68;100.00;101701.66;2080793;28;20190;-68
2022/07/17 01:06:28;;;;;;;6.20;2.53;;;;;;;20.73;100.00;101700.25;2074818;28;20192;-68
2022/07/17 01:07:29;;;;;;;4.20;2.73;;;;;;;20.74;100.00;101708.22;2077546;28;20414;-68
2022/07/17 01:08:31;;;;;;;4.63;2.67;;;;;;;20.76;100.00;101708.50;2081349;28;20274;-68
2022/07/17 01:09:33;;;;;;;4.80;2.67;;;;;;;20.79;100.00;101706.78;2077737;28;20439;-68
2022/07/17 01:10:33;;;;;;;5.60;2.23;;;;;;;20.82;100.00;101703.78;2073067;28;20423;-68
2022/07/17 01:11:34;;;;;;;3.37;2.37;;;;;;;20.84;100.00;101703.31;2074351;28;20941;-68
2022/07/17 01:12:34;;;;;;;5.90;2.70;;;;;;;20.24;100.00;101612.53;2080344;28;20554;-69
2022/07/17 01:13:35;;;;;;;4.53;2.33;;;;;;;20.86;100.00;101701.56;2074991;28;20195;-68
2022/07/17 01:14:36;;;;;;;4.83;2.67;;;;;;;20.28;100.00;101621.59;2081071;28;20222;-69
2022/07/17 01:15:38;;;;;;;3.40;2.20;;;;;;;20.90;100.00;101704.25;2074392;28;20217;-68
2022/07/17 01:16:40;;;;;;;6.27;2.60;;;;;;;20.09;100.00;101584.28;2072942;28;20586;-68
2022/07/17 01:17:41;;;;;;;5.87;2.73;;;;;;;20.91;100.00;101694.53;2072605;28;20443;-68
2022/07/17 01:18:42;;;;;;;4.73;2.70;;;;;;;20.91;100.00;101698.13;2073044;28;20483;-68
2022/07/17 01:19:42;;;;;;;5.40;2.67;;;;;;;20.79;100.00;101678.59;2073185;28;20290;-68
2022/07/17 01:20:45;;;;;;;6.37;2.50;;;;;;;20.91;100.00;101700.94;2072962;28;20177;-68
2022/07/17 01:21:48;;;;;;;4.67;2.40;;;;;;;20.91;100.00;101700.94;2072807;28;20227;-68
2022/07/17 01:22:50;;;;;;;3.77;2.40;;;;;;;20.89;100.00;101702.66;2072899;28;20445;-69
2022/07/17 01:23:51;;;;;;;4.73;2.53;;;;;;;20.91;100.00;101705.81;2080706;28;20428;-68
2022/07/17 01:24:51;;;;;;;7.90;2.53;;;;;;;20.93;100.00;101708.94;2074287;28;20880;-69
2022/07/17 01:25:51;;;;;;;4.37;2.40;;;;;;;20.94;100.00;101699.97;2076454;28;20693;-69
2022/07/17 01:26:52;;;;;;;4.87;2.73;;;;;;;20.96;100.00;101705.16;2080822;28;20239;-69
2022/07/17 01:27:53;;;;;;;4.80;2.40;;;;;;;20.93;100.00;101709.69;2077532;28;20185;-69
2022/07/17 01:28:53;;;;;;;6.40;2.13;;;;;;;20.88;100.00;101709.56;2072947;28;20206;-68
2022/07/17 01:29:56;;;;;;;5.43;2.30;;;;;;;20.86;100.00;101703.59;2074269;28;20231;-68
2022/07/17 01:30:57;;;;;;;5.13;2.47;;;;;;;20.76;100.00;101705.69;2080653;28;20174;-68
2022/07/17 01:31:58;;;;;;;4.33;2.77;;;;;;;20.62;100.00;101705.59;2072851;28;21016;-69
2022/07/17 01:32:58;;;;;;;6.10;2.77;;;;;;;19.42;100.00;101524.75;2072851;28;20215;-69
2022/07/17 01:34:01;;;;;;;7.70;2.70;;;;;;;20.63;100.00;101710.75;2072426;28;20443;-68
2022/07/17 01:35:03;;;;;;;4.07;2.40;;;;;;;20.65;100.00;101707.47;2072552;28;20194;-68
2022/07/17 01:36:03;;;;;;;3.27;2.27;;;;;;;20.61;100.00;101704.81;2078370;28;20474;-68
2022/07/17 01:37:04;;;;;;;3.87;2.33;;;;;;;20.61;100.00;101699.19;2080420;28;20467;-68
2022/07/17 01:38:04;;;;;;;4.20;2.33;;;;;;;20.62;100.00;101697.94;2078637;28;20243;-69
2022/07/17 01:39:05;;;;;;;3.77;2.60;;;;;;;20.62;100.00;101688.72;2072849;28;20174;-69
2022/07/17 01:40:08;;;;;;;4.93;2.20;;;;;;;20.34;100.00;101647.81;2073010;28;20233;-69
2022/07/17 01:41:09;;;;;;;6.30;2.43;;;;;;;20.62;100.00;101699.97;2073232;28;20170;-68
2022/07/17 01:42:10;;;;;;;4.50;2.70;;;;;;;20.58;100.00;101708.56;2079952;28;20435;-69
2022/07/17 01:43:10;;;;;;;6.70;2.30;;;;;;;20.32;100.00;101659.56;2081135;28;20257;-68
2022/07/17 01:44:11;;;;;;;4.10;2.40;;;;;;;20.56;100.00;101705.47;2075179;28;20227;-69
2022/07/17 01:45:13;;;;;;;4.83;2.20;;;;;;;20.25;100.00;101662.72;2076713;28;20314;-69
2022/07/17 01:46:13;;;;;;;3.30;2.20;;;;;;;20.46;100.00;101712.38;2077622;28;20195;-69
2022/07/17 01:47:17;;;;;;;4.63;2.20;;;;;;;19.80;100.00;101626.22;2074607;28;20478;-69
2022/07/17 01:48:28;;;;;;;5.30;2.50;;;;;;;19.98;100.00;101659.97;2079347;28;20181;-69
2022/07/17 01:49:28;;;;;;;6.23;2.20;;;;;;;20.13;100.00;101703.09;2074440;28;20421;-69
2022/07/17 01:50:29;;;;;;;3.40;2.40;;;;;;;20.09;100.00;101708.09;2079722;28;20423;-69
2022/07/17 01:51:30;;;;;;;7.63;2.33;;;;;;;19.67;100.00;101639.69;2072981;28;20174;-68
2022/07/17 01:52:30;;;;;;;4.83;2.67;;;;;;;20.04;100.00;101710.72;2072193;28;20242;-69
2022/07/17 01:53:31;;;;;;;3.13;2.30;;;;;;;19.98;100.00;101693.72;2079643;28;20238;-68
2022/07/17 01:54:32;;;;;;;6.27;2.70;;;;;;;20.03;100.00;101697.91;2074963;28;20220;-68
2022/07/17 01:55:33;;;;;;;5.00;2.90;;;;;;;20.10;100.00;101706.84;2076912;28;20188;-69
2022/07/17 01:56:33;;;;;;;4.50;2.60;;;;;;;20.12;100.00;101709.19;2077597;28;20451;-69
2022/07/17 01:57:34;;;;;;;5.23;2.67;;;;;;;20.06;100.00;101691.34;2074614;28;20185;-68
2022/07/17 01:58:35;;;;;;;4.47;2.43;;;;;;;20.13;100.00;101702.31;2079230;28;20226;-69
2022/07/17 01:59:36;;;;;;;4.00;2.63;;;;;;;20.16;100.00;101702.13;2072103;28;20243;-69
2022/07/17 02:00:36;;;;;;;8.60;2.90;;;;;;;20.13;100.00;101691.84;2081094;28;20659;-69
2022/07/17 02:01:37;;;;;;;7.00;2.63;;;;;;;19.41;100.00;101579.44;2075575;28;20809;-68
2022/07/17 02:02:38;;;;;;;5.50;2.37;;;;;;;20.23;100.00;101693.38;2080419;28;20608;-69
2022/07/17 02:03:38;;;;;;;5.97;2.60;;;;;;;20.20;100.00;101697.13;2075582;28;20196;-69
2022/07/17 02:04:41;;;;;;;4.30;2.67;;;;;;;20.08;100.00;101680.44;2072664;28;20185;-68
2022/07/17 02:05:42;;;;;;;5.47;2.70;;;;;;;20.11;100.00;101679.50;2072320;28;20635;-69
2022/07/17 02:06:42;;;;;;;4.87;2.47;;;;;;;20.23;100.00;101689.78;2072712;28;20408;-69
2022/07/17 02:07:44;;;;;;;5.63;2.90;;;;;;;20.02;100.00;101659.78;2078092;28;20181;-68
2022/07/17 02:08:44;;;;;;;5.77;2.80;;;;;;;20.21;100.00;101697.94;2073027;28;20178;-68
2022/07/17 02:09:45;;;;;;;7.73;2.90;;;;;;;20.14;100.00;101698.25;2072948;28;20486;-69
2022/07/17 02:10:45;;;;;;;6.97;2.90;;;;;;;20.05;100.00;101687.00;2079608;28;20250;-69
2022/07/17 02:11:46;;;;;;;5.47;2.33;;;;;;;20.10;100.00;101695.59;2075163;28;20197;-69
2022/07/17 02:12:46;;;;;;;6.57;2.70;;;;;;;19.66;100.00;101634.53;2072019;28;20197;-69
2022/07/17 02:13:47;;;;;;;6.37;2.70;;;;;;;20.02;100.00;101691.53;2075876;28;20220;-69
2022/07/17 02:14:47;;;;;;;7.23;2.83;;;;;;;19.97;100.00;101688.56;2078380;28;20227;-69
2022/07/17 02:15:47;;;;;;;7.83;2.97;;;;;;;20.04;100.00;101702.28;2072169;28;20181;-69
2022/07/17 02:16:48;;;;;;;4.90;3.00;;;;;;;19.18;100.00;101556.78;2072659;28;20173;-69
2022/07/17 02:17:48;;;;;;;5.00;2.80;;;;;;;19.56;100.00;101619.72;2080682;28;20175;-69
2022/07/17 02:18:49;;;;;;;6.53;2.87;;;;;;;20.00;100.00;101688.38;2073602;28;20272;-69
2022/07/17 02:19:49;;;;;;;5.07;2.60;;;;;;;20.04;100.00;101696.66;2078857;28;20207;-69
2022/07/17 02:20:50;;;;;;;6.23;2.63;;;;;;;20.06;100.00;101694.19;2075626;28;20193;-69
2022/07/17 02:21:50;;;;;;;6.20;2.77;;;;;;;20.08;100.00;101700.91;2072752;28;20212;-69
2022/07/17 02:22:51;;;;;;;4.40;2.70;;;;;;;20.10;100.00;101695.59;2074645;28;20235;-69
2022/07/17 02:23:51;;;;;;;5.77;2.80;;;;;;;20.10;100.00;101700.44;2080279;28;20179;-69
2022/07/17 02:24:52;;;;;;;5.33;2.93;;;;;;;20.09;100.00;101705.28;2080183;28;20175;-69
2022/07/17 02:25:52;;;;;;;5.07;2.33;;;;;;;20.03;100.00;101689.47;2072412;28;20171;-69
2022/07/17 02:26:53;;;;;;;8.67;2.80;;;;;;;20.03;100.00;101704.34;2072275;28;20222;-69
2022/07/17 02:27:54;;;;;;;7.57;2.60;;;;;;;20.02;100.00;101702.78;2079052;28;20667;-69
2022/07/17 02:28:54;;;;;;;4.97;2.93;;;;;;;20.01;100.00;101695.56;2080754;28;20181;-69
2022/07/17 02:29:55;;;;;;;7.07;3.10;;;;;;;20.00;100.00;101696.84;2080915;28;20231;-69
2022/07/17 02:30:55;;;;;;;7.07;3.03;;;;;;;20.01;100.00;101700.44;2077762;28;20605;-69
2022/07/17 02:31:56;;;;;;;4.83;2.90;;;;;;;19.96;100.00;101692.63;2074595;28;20562;-69
2022/07/17 02:32:56;;;;;;;6.77;2.70;;;;;;;19.99;100.00;101695.28;2079980;28;20209;-69
2022/07/17 02:33:58;;;;;;;6.50;2.50;;;;;;;20.02;100.00;101699.97;2080557;28;20260;-69
2022/07/17 02:34:58;;;;;;;6.13;2.80;;;;;;;20.02;100.00;101699.97;2072190;28;20246;-69
2022/07/17 02:36:01;;;;;;;7.63;3.03;;;;;;;20.06;100.00;101699.81;2079465;28;20873;-69
2022/07/17 02:37:01;;;;;;;5.23;3.03;;;;;;;19.69;100.00;101651.25;2074128;28;20185;-69
2022/07/17 02:38:02;;;;;;;4.63;2.90;;;;;;;20.09;100.00;101713.72;2073130;28;20483;-69
2022/07/17 02:39:03;;;;;;;4.83;2.80;;;;;;;20.10;100.00;101712.47;2076419;28;20212;-69
2022/07/17 02:40:05;;;;;;;7.20;2.97;;;;;;;20.13;100.00;101705.13;2080764;28;20245;-69
2022/07/17 02:41:05;;;;;;;6.67;3.03;;;;;;;20.15;100.00;101713.88;2079881;28;20200;-69
2022/07/17 02:42:06;;;;;;;4.77;2.83;;;;;;;20.16;100.00;101715.44;2079800;28;20415;-69
2022/07/17 02:43:06;;;;;;;5.07;2.80;;;;;;;20.10;100.00;101711.69;2080667;28;20177;-69
2022/07/17 02:44:07;;;;;;;5.97;2.67;;;;;;;19.79;100.00;101664.03;2072683;28;20315;-69
2022/07/17 02:45:08;;;;;;;7.73;2.93;;;;;;;20.14;100.00;101718.72;2072081;28;20659;-69
2022/07/17 02:46:08;;;;;;;8.57;3.00;;;;;;;20.18;100.00;101715.75;2078262;28;20188;-69
2022/07/17 02:47:09;;;;;;;5.47;2.70;;;;;;;20.18;100.00;101715.75;2075796;28;20523;-69
2022/07/17 02:48:09;;;;;;;5.50;2.80;;;;;;;20.19;100.00;101720.91;2072651;28;20275;-69
2022/07/17 02:49:10;;;;;;;5.87;2.60;;;;;;;20.20;100.00;101711.22;2074773;28;20660;-69
2022/07/17 02:50:12;;;;;;;9.27;3.50;;;;;;;20.24;100.00;101711.84;2079431;28;20177;-69
2022/07/17 02:51:12;;;;;;;10.57;4.13;;;;;;;19.92;100.00;101669.50;2072460;28;20288;-69
2022/07/17 02:52:13;;;;;;;6.60;3.00;;;;;;;20.28;100.00;101720.91;2072794;28;20424;-69
2022/07/17 02:53:13;;;;;;;6.47;2.80;;;;;;;20.14;100.00;101699.03;2078653;28;20215;-69
2022/07/17 02:54:14;;;;;;;9.67;3.33;;;;;;;20.32;100.00;101715.84;2079353;28;20220;-69
2022/07/17 02:55:16;;;;;;;6.37;3.07;;;;;;;20.34;100.00;101724.63;2076923;28;20185;-69
2022/07/17 02:56:17;;;;;;;5.07;3.13;;;;;;;20.25;100.00;101702.13;2076785;28;20244;-69
2022/07/17 02:57:18;;;;;;;6.67;2.60;;;;;;;20.40;100.00;101728.38;2074817;28;20442;-69
2022/07/17 02:58:18;;;;;;;6.17;2.97;;;;;;;20.42;100.00;101720.22;2078139;28;20207;-69
2022/07/17 02:59:19;;;;;;;6.23;2.73;;;;;;;20.42;100.00;101725.06;2071818;28;20419;-69
2022/07/17 03:00:20;;;;;;;7.37;2.53;;;;;;;20.34;100.00;101712.56;2072723;28;20186;-69
2022/07/17 03:01:21;;;;;;;6.00;2.97;;;;;;;20.38;100.00;101722.44;2080315;28;20188;-69
2022/07/17 03:02:21;;;;;;;5.60;2.70;;;;;;;20.46;100.00;101725.69;2081412;28;20439;-69
2022/07/17 03:03:22;;;;;;;7.60;2.80;;;;;;;20.46;100.00;101728.50;2082163;28;20197;-69
2022/07/17 03:04:22;;;;;;;10.80;3.10;;;;;;;20.47;100.00;101730.06;2080962;28;20286;-69
2022/07/17 03:05:23;;;;;;;9.13;3.20;;;;;;;19.58;100.00;101586.28;2081032;28;20287;-69
2022/07/17 03:06:23;;;;;;;6.23;3.00;;;;;;;20.47;100.00;101730.84;2074145;28;20264;-69
2022/07/17 03:07:24;;;;;;;9.93;3.73;;;;;;;20.46;100.00;101729.28;2076526;28;20639;-69
2022/07/17 03:08:24;;;;;;;10.57;3.43;;;;;;;20.48;100.00;101731.63;2074205;28;20186;-69
2022/07/17 03:09:26;;;;;;;11.60;3.33;;;;;;;20.04;100.00;101674.16;2074363;28;20193;-69
2022/07/17 03:10:26;;;;;;;16.40;3.73;;;;;;;20.41;100.00;101724.28;2081364;28;20545;-69
2022/07/17 03:11:27;;;;;;;13.67;3.47;;;;;;;20.48;100.00;101734.44;2076199;28;20196;-68
2022/07/17 03:12:27;;;;;;;11.70;3.60;;;;;;;20.47;100.00;101741.34;2078490;28;20191;-69
2022/07/17 03:13:28;;;;;;;13.00;4.03;;;;;;;20.16;100.00;101690.13;2082074;28;20239;-69
2022/07/17 03:14:28;;;;;;;13.00;3.93;;;;;;;20.12;100.00;101687.44;2078920;28;20200;-69
2022/07/17 03:15:29;;;;;;;9.83;3.77;;;;;;;20.45;100.00;101733.34;2074973;28;20227;-69
2022/07/17 03:16:29;;;;;;;16.67;3.67;;;;;;;20.39;100.00;101740.09;2082162;28;20185;-69
2022/07/17 03:17:29;;;;;;;14.63;4.03;;;;;;;20.30;100.00;101740.91;2081991;28;20177;-69
2022/07/17 03:18:30;;;;;;;8.10;3.10;;;;;;;20.37;100.00;101751.81;2082280;28;20220;-69
2022/07/17 03:19:31;;;;;;;6.50;3.10;;;;;;;20.39;100.00;101731.66;2075769;28;20193;-69
2022/07/17 03:20:31;;;;;;;10.73;3.37;;;;;;;20.07;100.00;101684.47;2079268;28;20196;-69
2022/07/17 03:21:32;;;;;;;13.57;3.47;;;;;;;20.42;100.00;101736.34;2078043;28;20196;-69
2022/07/17 03:22:32;;;;;;;8.63;3.27;;;;;;;20.39;100.00;101738.06;2073644;28;20393;-69
2022/07/17 03:23:33;;;;;;;8.90;3.10;;;;;;;20.38;100.00;101728.06;2074001;28;20180;-69
2022/07/17 03:24:33;;;;;;;13.13;3.07;;;;;;;20.42;100.00;101739.16;2073063;28;20544;-69
2022/07/17 03:25:34;;;;;;;10.13;3.30;;;;;;;20.31;100.00;101713.53;2075054;28;20180;-69
2022/07/17 03:26:34;;;;;;;11.90;3.27;;;;;;;20.43;100.00;101724.59;2074103;28;20234;-69
2022/07/17 03:27:35;;;;;;;13.37;3.57;;;;;;;20.53;100.00;101756.31;2080136;28;20226;-69
2022/07/17 03:28:35;;;;;;;18.23;4.10;;;;;;;20.56;100.00;101741.28;2082216;28;20330;-69
2022/07/17 03:29:36;;;;;;;23.97;4.97;;;;;;;20.61;100.00;101737.81;2077736;28;20204;-69
2022/07/17 03:30:36;;;;;;;18.10;5.00;;;;;;;20.59;100.00;101734.72;2077241;28;20216;-69
2022/07/17 03:31:38;;;;;;;15.73;4.60;;;;;;;20.67;100.00;101738.75;2079846;28;20183;-69
2022/07/17 03:32:38;;;;;;;20.60;4.40;;;;;;;20.57;100.00;101723.16;2073431;28;20180;-69
2022/07/17 03:33:38;;;;;;;13.43;4.40;;;;;;;20.66;100.00;101746.44;2073759;28;20480;-69
2022/07/17 03:34:39;;;;;;;14.13;3.63;;;;;;;20.68;100.00;101737.50;2081934;28;20333;-69
2022/07/17 03:35:40;;;;;;;12.17;3.60;;;;;;;20.56;100.00;101724.38;2081592;28;20183;-69
2022/07/17 03:36:41;;;;;;;11.70;3.23;;;;;;;20.69;100.00;101742.66;2076182;28;20186;-69
2022/07/17 03:37:43;;;;;;;10.07;3.20;;;;;;;20.69;100.00;101741.88;2075890;28;20689;-69
2022/07/17 03:38:43;;;;;;;11.70;3.50;;;;;;;20.69;100.00;101745.47;2081994;28;20188;-69
2022/07/17 03:39:44;;;;;;;6.80;3.03;;;;;;;20.46;100.00;101706.00;2082093;28;20473;-69
2022/07/17 03:40:44;;;;;;;11.17;3.43;;;;;;;20.66;100.00;101748.44;2081690;28;20640;-69
2022/07/17 03:41:45;;;;;;;9.17;3.23;;;;;;;20.61;100.00;101749.09;2081593;28;20184;-69
2022/07/17 03:42:45;;;;;;;8.17;3.50;;;;;;;20.60;100.00;101742.69;2073713;28;20561;-69
2022/07/17 03:43:46;;;;;;;11.77;3.57;;;;;;;20.60;100.00;101745.50;2073343;28;20668;-69
2022/07/17 03:44:47;;;;;;;9.10;3.20;;;;;;;20.12;100.00;101667.75;2080257;28;20218;-69
2022/07/17 03:45:47;;;;;;;7.97;3.07;;;;;;;20.61;100.00;101746.28;2076149;28;20265;-69
2022/07/17 03:46:48;;;;;;;11.77;3.93;;;;;;;20.62;100.00;101750.69;2073751;28;20202;-69
2022/07/17 03:47:48;;;;;;;10.93;3.47;;;;;;;20.62;100.00;101745.03;2076476;28;20677;-69
2022/07/17 03:48:49;;;;;;;7.73;3.80;;;;;;;20.64;100.00;101748.94;2079755;28;20723;-69
2022/07/17 03:49:50;;;;;;;12.87;3.73;;;;;;;20.27;100.00;101688.34;2076337;28;20187;-69
2022/07/17 03:50:50;;;;;;;12.37;3.57;;;;;;;20.71;100.00;101747.81;2074073;28;20215;-69
2022/07/17 03:51:51;;;;;;;7.03;3.03;;;;;;;20.71;100.00;101739.34;2074053;28;20244;-69
2022/07/17 03:52:51;;;;;;;7.47;3.10;;;;;;;20.50;100.00;101709.41;2073373;28;20239;-69
2022/07/17 03:53:52;;;;;;;9.33;2.90;;;;;;;20.75;100.00;101759.69;2073333;28;20189;-69
2022/07/17 03:54:52;;;;;;;7.90;2.70;;;;;;;19.71;100.00;101584.03;2073352;28;20254;-69
2022/07/17 03:55:53;;;;;;;8.67;2.90;;;;;;;20.81;100.00;101750.13;2073253;28;20190;-69
2022/07/17 03:56:53;;;;;;;7.47;3.30;;;;;;;20.63;100.00;101719.19;2075751;28;20176;-69
2022/07/17 03:57:54;;;;;;;9.47;2.93;;;;;;;20.87;100.00;101756.66;2080472;28;20177;-69
2022/07/17 03:58:54;;;;;;;8.57;3.10;;;;;;;19.80;100.00;101589.66;2073547;28;20173;-69
2022/07/17 03:59:55;;;;;;;6.13;2.73;;;;;;;20.86;100.00;101754.31;2074067;28;20184;-69
2022/07/17 04:00:55;;;;;;;7.77;2.70;;;;;;;19.87;100.00;101603.41;2073648;28;20201;-69
2022/07/17 04:01:56;;;;;;;6.00;2.83;;;;;;;20.67;100.00;101719.81;2078060;28;20623;-69
2022/07/17 04:02:56;;;;;;;10.43;3.07;;;;;;;20.91;100.00;101754.50;2076597;28;20186;-69
2022/07/17 04:03:57;;;;;;;7.43;3.27;;;;;;;20.97;100.00;101755.41;2077025;28;20233;-69
2022/07/17 04:04:57;;;;;;;7.33;2.80;;;;;;;20.97;100.00;101752.59;2081350;28;20191;-69
2022/07/17 04:05:58;;;;;;;4.23;2.40;;;;;;;20.82;100.00;101717.88;2081634;28;20256;-69
2022/07/17 04:06:58;;;;;;;8.43;2.60;;;;;;;20.21;100.00;101627.56;2080703;28;20169;-69
2022/07/17 04:07:59;;;;;;;10.50;2.70;;;;;;;20.98;100.00;101742.88;2073956;28;20185;-69
2022/07/17 04:08:59;;;;;;;9.83;3.30;;;;;;;20.86;100.00;101718.47;2073613;28;20185;-69
2022/07/17 04:10:00;;;;;;;11.90;2.83;;;;;;;21.09;100.00;101745.16;2073695;28;20271;-69
2022/07/17 04:11:00;;;;;;;10.83;3.00;;;;;;;20.76;100.00;101688.00;2073674;28;20251;-69
2022/07/17 04:12:01;;;;;;;6.83;2.80;;;;;;;21.18;100.00;101748.72;2073421;28;20225;-69
2022/07/17 04:13:01;;;;;;;8.23;2.50;;;;;;;20.92;100.00;101699.69;2076390;28;20213;-69
2022/07/17 04:14:02;;;;;;;4.27;2.43;;;;;;;21.23;100.00;101755.75;2080265;28;20255;-69
2022/07/17 04:15:03;;;;;;;3.93;2.33;;;;;;;21.05;100.00;101719.19;2080387;28;20189;-69
2022/07/17 04:16:04;;;;;;;6.77;2.87;;;;;;;21.33;100.00;101758.03;2073903;28;20180;-69
2022/07/17 04:17:05;;;;;;;6.00;2.80;;;;;;;21.37;100.00;101755.00;2073011;28;20437;-69
2022/07/17 04:18:05;;;;;;;5.67;2.50;;;;;;;21.42;100.00;101757.97;2073655;28;20201;-69
2022/07/17 04:19:06;;;;;;;6.03;2.50;;;;;;;21.47;100.00;101759.34;2073531;28;20174;-69
2022/07/17 04:20:06;;;;;;;4.67;2.60;;;;;;;21.49;100.00;101756.84;2073599;28;20565;-69
2022/07/17 04:21:09;;;;;;;4.07;2.53;;;;;;;21.55;100.00;101750.03;2072826;28;20663;-68
2022/07/17 04:22:10;;;;;;;5.40;2.60;;;;;;;21.11;100.00;101677.81;2075284;28;20177;-69
2022/07/17 04:23:11;;;;;;;6.20;2.47;;;;;;;20.88;100.00;101641.94;2080057;28;20495;-69
2022/07/17 04:24:11;;;;;;;5.73;2.73;;;;;;;21.69;100.00;101759.84;2072192;28;20182;-69
2022/07/17 04:25:12;;;;;;;6.60;2.77;;;;;;;21.70;100.00;101759.34;2072290;28;20416;-69
2022/07/17 04:26:12;;;;;;;6.40;2.70;;;;;;;20.78;100.00;101606.63;2081002;28;20377;-69
2022/07/17 04:27:13;;;;;;;8.43;2.90;;;;;;;21.77;100.00;101761.81;2081002;28;20646;-69
2022/07/17 04:28:15;;;;;;;6.33;2.80;;;;;;;21.82;100.00;101752.69;2076367;28;20275;-69
2022/07/17 04:29:15;;;;;;;4.67;2.77;;;;;;;21.86;100.00;101755.31;2073525;28;20925;-69
2022/07/17 04:30:15;;;;;;;7.93;2.77;;;;;;;21.88;100.00;101761.25;2073513;28;20784;-69
2022/07/17 04:31:16;;;;;;;8.67;3.17;;;;;;;21.90;100.00;101770.78;2075496;28;20180;-69
2022/07/17 04:32:16;;;;;;;7.83;3.10;;;;;;;21.88;100.00;101758.44;2080533;28;20180;-69
2022/07/17 04:33:17;;;;;;;7.10;2.83;;;;;;;21.93;100.00;101757.75;2073593;28;20229;-69
2022/07/17 04:34:18;;;;;;;7.33;3.23;;;;;;;22.00;100.00;101763.81;2073111;28;20272;-69
2022/07/17 04:35:21;;;;;;;7.43;3.07;;;;;;;22.05;100.00;101768.78;2072659;28;20209;-69
2022/07/17 04:36:22;;;;;;;8.73;2.80;;;;;;;22.10;100.00;101768.09;2079510;28;20188;-69
2022/07/17 04:37:22;;;;;;;6.90;2.80;;;;;;;22.14;100.00;101770.72;2073639;28;20781;-69
2022/07/17 04:38:22;;;;;;;8.73;2.90;;;;;;;22.18;100.00;101765.69;2081913;28;20177;-69
2022/07/17 04:39:23;;;;;;;8.83;2.77;;;;;;;21.93;100.00;101726.72;2073824;28;20204;-69